sensor_id;sensor_type;location;lat;lon;timestamp;P1;durP1;ratioP1;P2;durP2;ratioP2
9236;SDS011;24579;42.810;23.214;2022-08-24T00:01:22;19.90;;;16.10;;
9236;SDS011;24579;42.810;23.214;2022-08-24T00:03:51;20.98;;;16.42;;
9236;SDS011;24579;42.810;23.214;2022-08-24T00:06:19;23.33;;;16.27;;
9236;SDS011;24579;42.810;23.214;2022-08-24T00:08:47;23.00;;;15.88;;
9236;SDS011;24579;42.810;23.214;2022-08-24T00:11:16;22.65;;;16.58;;
9236;SDS011;24579;42.810;23.214;2022-08-24T00:13:45;19.83;;;15.63;;
9236;SDS011;24579;42.810;23.214;2022-08-24T00:16:13;18.17;;;16.10;;
9236;SDS011;24579;42.810;23.214;2022-08-24T00:18:41;24.02;;;15.48;;
9236;SDS011;24579;42.810;23.214;2022-08-24T00:21:08;21.88;;;15.63;;
9236;SDS011;24579;42.810;23.214;2022-08-24T00:23:35;20.63;;;15.95;;
9236;SDS011;24579;42.810;23.214;2022-08-24T00:26:02;23.75;;;16.20;;
9236;SDS011;24579;42.810;23.214;2022-08-24T00:28:30;25.98;;;16.27;;
9236;SDS011;24579;42.810;23.214;2022-08-24T00:30:59;20.27;;;15.77;;
9236;SDS011;24579;42.810;23.214;2022-08-24T00:33:27;20.88;;;16.90;;
9236;SDS011;24579;42.810;23.214;2022-08-24T00:35:54;21.83;;;16.52;;
9236;SDS011;24579;42.810;23.214;2022-08-24T00:38:21;21.02;;;16.83;;
9236;SDS011;24579;42.810;23.214;2022-08-24T00:40:48;22.27;;;16.95;;
9236;SDS011;24579;42.810;23.214;2022-08-24T00:43:17;26.52;;;17.35;;
9236;SDS011;24579;42.810;23.214;2022-08-24T00:46:01;21.55;;;17.13;;
9236;SDS011;24579;42.810;23.214;2022-08-24T00:48:38;22.13;;;17.60;;
9236;SDS011;24579;42.810;23.214;2022-08-24T00:51:08;22.10;;;17.00;;
9236;SDS011;24579;42.810;23.214;2022-08-24T00:53:43;22.35;;;17.85;;
9236;SDS011;24579;42.810;23.214;2022-08-24T00:56:14;27.60;;;18.55;;
9236;SDS011;24579;42.810;23.214;2022-08-24T00:58:45;23.25;;;17.33;;
9236;SDS011;24579;42.810;23.214;2022-08-24T01:01:16;23.65;;;18.42;;
9236;SDS011;24579;42.810;23.214;2022-08-24T01:03:43;24.90;;;18.27;;
9236;SDS011;24579;42.810;23.214;2022-08-24T01:06:11;24.30;;;18.67;;
9236;SDS011;24579;42.810;23.214;2022-08-24T01:08:39;24.70;;;18.67;;
9236;SDS011;24579;42.810;23.214;2022-08-24T01:11:07;27.42;;;18.80;;
9236;SDS011;24579;42.810;23.214;2022-08-24T01:13:38;22.88;;;17.75;;
9236;SDS011;24579;42.810;23.214;2022-08-24T01:16:07;21.88;;;18.13;;
9236;SDS011;24579;42.810;23.214;2022-08-24T01:18:36;24.38;;;18.17;;
9236;SDS011;24579;42.810;23.214;2022-08-24T01:21:17;26.30;;;19.02;;
9236;SDS011;24579;42.810;23.214;2022-08-24T01:23:49;21.33;;;18.10;;
9236;SDS011;24579;42.810;23.214;2022-08-24T01:26:20;26.15;;;18.83;;
9236;SDS011;24579;42.810;23.214;2022-08-24T01:28:53;24.13;;;16.98;;
9236;SDS011;24579;42.810;23.214;2022-08-24T01:31:23;25.27;;;18.50;;
9236;SDS011;24579;42.810;23.214;2022-08-24T01:33:51;22.80;;;17.50;;
9236;SDS011;24579;42.810;23.214;2022-08-24T01:36:20;22.05;;;17.10;;
9236;SDS011;24579;42.810;23.214;2022-08-24T01:38:53;23.77;;;17.60;;
9236;SDS011;24579;42.810;23.214;2022-08-24T01:41:23;23.20;;;17.90;;
9236;SDS011;24579;42.810;23.214;2022-08-24T01:43:50;26.92;;;19.05;;
9236;SDS011;24579;42.810;23.214;2022-08-24T01:46:18;26.67;;;18.67;;
9236;SDS011;24579;42.810;23.214;2022-08-24T01:48:45;28.70;;;19.08;;
9236;SDS011;24579;42.810;23.214;2022-08-24T01:51:12;27.10;;;18.95;;
9236;SDS011;24579;42.810;23.214;2022-08-24T01:53:39;28.33;;;18.98;;
9236;SDS011;24579;42.810;23.214;2022-08-24T01:56:08;22.90;;;17.75;;
9236;SDS011;24579;42.810;23.214;2022-08-24T01:58:35;21.30;;;16.95;;
9236;SDS011;24579;42.810;23.214;2022-08-24T02:01:02;26.92;;;19.35;;
9236;SDS011;24579;42.810;23.214;2022-08-24T02:03:29;26.35;;;19.77;;
9236;SDS011;24579;42.810;23.214;2022-08-24T02:05:56;23.30;;;17.80;;
9236;SDS011;24579;42.810;23.214;2022-08-24T02:08:23;23.73;;;17.63;;
9236;SDS011;24579;42.810;23.214;2022-08-24T02:10:51;25.45;;;17.95;;
9236;SDS011;24579;42.810;23.214;2022-08-24T02:13:19;28.48;;;18.30;;
9236;SDS011;24579;42.810;23.214;2022-08-24T02:15:46;20.63;;;17.55;;
9236;SDS011;24579;42.810;23.214;2022-08-24T02:18:13;23.08;;;17.08;;
9236;SDS011;24579;42.810;23.214;2022-08-24T02:20:40;23.55;;;17.73;;
9236;SDS011;24579;42.810;23.214;2022-08-24T02:23:07;24.70;;;17.38;;
9236;SDS011;24579;42.810;23.214;2022-08-24T02:25:34;24.15;;;17.60;;
9236;SDS011;24579;42.810;23.214;2022-08-24T02:28:01;22.77;;;17.73;;
9236;SDS011;24579;42.810;23.214;2022-08-24T02:30:30;25.50;;;17.55;;
9236;SDS011;24579;42.810;23.214;2022-08-24T02:32:58;25.27;;;17.42;;
9236;SDS011;24579;42.810;23.214;2022-08-24T02:35:25;23.73;;;17.30;;
9236;SDS011;24579;42.810;23.214;2022-08-24T02:37:54;22.73;;;17.60;;
9236;SDS011;24579;42.810;23.214;2022-08-24T02:40:21;24.02;;;17.58;;
9236;SDS011;24579;42.810;23.214;2022-08-24T02:42:49;24.83;;;18.17;;
9236;SDS011;24579;42.810;23.214;2022-08-24T02:45:16;24.90;;;17.20;;
9236;SDS011;24579;42.810;23.214;2022-08-24T02:47:45;23.10;;;18.08;;
9236;SDS011;24579;42.810;23.214;2022-08-24T02:50:13;21.65;;;17.52;;
9236;SDS011;24579;42.810;23.214;2022-08-24T02:52:42;23.67;;;18.17;;
9236;SDS011;24579;42.810;23.214;2022-08-24T02:55:10;23.33;;;18.85;;
9236;SDS011;24579;42.810;23.214;2022-08-24T02:57:39;27.20;;;17.85;;
9236;SDS011;24579;42.810;23.214;2022-08-24T03:00:07;28.60;;;18.10;;
9236;SDS011;24579;42.810;23.214;2022-08-24T03:02:36;29.38;;;19.33;;
9236;SDS011;24579;42.810;23.214;2022-08-24T03:05:06;26.55;;;19.27;;
9236;SDS011;24579;42.810;23.214;2022-08-24T03:07:34;25.35;;;18.80;;
9236;SDS011;24579;42.810;23.214;2022-08-24T03:10:02;27.17;;;18.55;;
9236;SDS011;24579;42.810;23.214;2022-08-24T03:12:30;29.10;;;18.65;;
9236;SDS011;24579;42.810;23.214;2022-08-24T03:14:58;24.10;;;18.42;;
9236;SDS011;24579;42.810;23.214;2022-08-24T03:17:26;27.40;;;18.63;;
9236;SDS011;24579;42.810;23.214;2022-08-24T03:19:55;21.70;;;18.10;;
9236;SDS011;24579;42.810;23.214;2022-08-24T03:22:23;23.38;;;18.50;;
9236;SDS011;24579;42.810;23.214;2022-08-24T03:24:51;30.23;;;18.92;;
9236;SDS011;24579;42.810;23.214;2022-08-24T03:27:18;33.88;;;19.90;;
9236;SDS011;24579;42.810;23.214;2022-08-24T03:29:45;24.63;;;18.67;;
9236;SDS011;24579;42.810;23.214;2022-08-24T03:32:12;29.17;;;19.70;;
9236;SDS011;24579;42.810;23.214;2022-08-24T03:34:39;24.92;;;18.25;;
9236;SDS011;24579;42.810;23.214;2022-08-24T03:37:06;28.92;;;19.13;;
9236;SDS011;24579;42.810;23.214;2022-08-24T03:39:34;28.27;;;19.10;;
9236;SDS011;24579;42.810;23.214;2022-08-24T03:42:02;26.20;;;18.50;;
9236;SDS011;24579;42.810;23.214;2022-08-24T03:44:29;27.20;;;18.88;;
9236;SDS011;24579;42.810;23.214;2022-08-24T03:46:56;27.67;;;18.63;;
9236;SDS011;24579;42.810;23.214;2022-08-24T03:49:23;28.58;;;19.95;;
9236;SDS011;24579;42.810;23.214;2022-08-24T03:51:50;26.00;;;19.10;;
9236;SDS011;24579;42.810;23.214;2022-08-24T03:54:18;26.25;;;19.83;;
9236;SDS011;24579;42.810;23.214;2022-08-24T03:56:46;26.75;;;19.48;;
9236;SDS011;24579;42.810;23.214;2022-08-24T03:59:13;27.95;;;19.95;;
9236;SDS011;24579;42.810;23.214;2022-08-24T04:01:40;30.83;;;21.10;;
9236;SDS011;24579;42.810;23.214;2022-08-24T04:04:07;32.45;;;20.98;;
9236;SDS011;24579;42.810;23.214;2022-08-24T04:06:35;34.92;;;21.05;;
9236;SDS011;24579;42.810;23.214;2022-08-24T04:09:02;31.05;;;22.00;;
9236;SDS011;24579;42.810;23.214;2022-08-24T04:11:32;29.35;;;20.85;;
9236;SDS011;24579;42.810;23.214;2022-08-24T04:14:00;26.83;;;19.75;;
9236;SDS011;24579;42.810;23.214;2022-08-24T04:16:28;26.05;;;20.42;;
9236;SDS011;24579;42.810;23.214;2022-08-24T04:18:55;29.30;;;20.45;;
9236;SDS011;24579;42.810;23.214;2022-08-24T04:21:24;28.85;;;20.45;;
9236;SDS011;24579;42.810;23.214;2022-08-24T04:23:51;26.30;;;21.38;;
9236;SDS011;24579;42.810;23.214;2022-08-24T04:26:19;28.20;;;21.95;;
9236;SDS011;24579;42.810;23.214;2022-08-24T04:28:48;29.83;;;21.88;;
9236;SDS011;24579;42.810;23.214;2022-08-24T04:31:17;29.98;;;21.73;;
9236;SDS011;24579;42.810;23.214;2022-08-24T04:33:45;27.95;;;21.30;;
9236;SDS011;24579;42.810;23.214;2022-08-24T04:36:14;26.20;;;20.58;;
9236;SDS011;24579;42.810;23.214;2022-08-24T04:38:42;37.40;;;21.77;;
9236;SDS011;24579;42.810;23.214;2022-08-24T04:41:11;34.30;;;22.48;;
9236;SDS011;24579;42.810;23.214;2022-08-24T04:43:39;31.75;;;20.77;;
9236;SDS011;24579;42.810;23.214;2022-08-24T04:46:09;28.48;;;20.52;;
9236;SDS011;24579;42.810;23.214;2022-08-24T04:48:40;26.75;;;20.95;;
9236;SDS011;24579;42.810;23.214;2022-08-24T04:51:09;27.17;;;21.90;;
9236;SDS011;24579;42.810;23.214;2022-08-24T04:53:38;25.58;;;20.40;;
9236;SDS011;24579;42.810;23.214;2022-08-24T04:56:08;31.58;;;21.42;;
9236;SDS011;24579;42.810;23.214;2022-08-24T04:58:36;31.10;;;22.30;;
9236;SDS011;24579;42.810;23.214;2022-08-24T05:01:05;29.58;;;21.92;;
9236;SDS011;24579;42.810;23.214;2022-08-24T05:03:33;28.05;;;22.00;;
9236;SDS011;24579;42.810;23.214;2022-08-24T05:06:02;29.70;;;21.77;;
9236;SDS011;24579;42.810;23.214;2022-08-24T05:08:30;28.63;;;21.98;;
9236;SDS011;24579;42.810;23.214;2022-08-24T05:10:57;32.40;;;22.45;;
9236;SDS011;24579;42.810;23.214;2022-08-24T05:13:25;30.50;;;23.15;;
9236;SDS011;24579;42.810;23.214;2022-08-24T05:15:52;32.78;;;23.17;;
9236;SDS011;24579;42.810;23.214;2022-08-24T05:18:19;30.75;;;21.35;;
9236;SDS011;24579;42.810;23.214;2022-08-24T05:20:46;25.92;;;20.50;;
9236;SDS011;24579;42.810;23.214;2022-08-24T05:23:14;24.42;;;18.98;;
9236;SDS011;24579;42.810;23.214;2022-08-24T05:25:43;25.25;;;19.15;;
9236;SDS011;24579;42.810;23.214;2022-08-24T05:28:10;25.75;;;18.58;;
9236;SDS011;24579;42.810;23.214;2022-08-24T05:30:37;20.80;;;18.33;;
9236;SDS011;24579;42.810;23.214;2022-08-24T05:33:04;23.73;;;18.38;;
9236;SDS011;24579;42.810;23.214;2022-08-24T05:35:35;23.40;;;18.70;;
9236;SDS011;24579;42.810;23.214;2022-08-24T05:38:03;20.25;;;17.73;;
9236;SDS011;24579;42.810;23.214;2022-08-24T05:40:32;22.98;;;18.52;;
9236;SDS011;24579;42.810;23.214;2022-08-24T05:42:59;21.95;;;17.90;;
9236;SDS011;24579;42.810;23.214;2022-08-24T05:45:25;26.75;;;18.77;;
9236;SDS011;24579;42.810;23.214;2022-08-24T05:47:52;20.38;;;17.65;;
9236;SDS011;24579;42.810;23.214;2022-08-24T05:50:19;27.77;;;19.15;;
9236;SDS011;24579;42.810;23.214;2022-08-24T05:52:46;20.77;;;17.48;;
9236;SDS011;24579;42.810;23.214;2022-08-24T05:55:13;19.42;;;17.20;;
9236;SDS011;24579;42.810;23.214;2022-08-24T05:57:42;17.30;;;15.50;;
9236;SDS011;24579;42.810;23.214;2022-08-24T06:00:10;15.98;;;14.27;;
9236;SDS011;24579;42.810;23.214;2022-08-24T06:02:38;18.15;;;13.70;;
9236;SDS011;24579;42.810;23.214;2022-08-24T06:05:05;16.10;;;13.20;;
9236;SDS011;24579;42.810;23.214;2022-08-24T06:07:32;17.15;;;14.40;;
9236;SDS011;24579;42.810;23.214;2022-08-24T06:09:59;17.33;;;12.30;;
9236;SDS011;24579;42.810;23.214;2022-08-24T06:12:26;16.40;;;12.82;;
9236;SDS011;24579;42.810;23.214;2022-08-24T06:14:54;18.17;;;13.90;;
9236;SDS011;24579;42.810;23.214;2022-08-24T06:17:21;16.83;;;14.52;;
9236;SDS011;24579;42.810;23.214;2022-08-24T06:19:48;18.85;;;12.65;;
9236;SDS011;24579;42.810;23.214;2022-08-24T06:22:15;12.73;;;11.38;;
9236;SDS011;24579;42.810;23.214;2022-08-24T06:24:42;15.07;;;12.27;;
9236;SDS011;24579;42.810;23.214;2022-08-24T06:27:27;14.18;;;11.80;;
9236;SDS011;24579;42.810;23.214;2022-08-24T06:29:57;14.52;;;12.10;;
9236;SDS011;24579;42.810;23.214;2022-08-24T06:32:25;13.02;;;10.80;;
9236;SDS011;24579;42.810;23.214;2022-08-24T06:34:54;11.98;;;10.70;;
9236;SDS011;24579;42.810;23.214;2022-08-24T06:37:22;10.57;;;8.93;;
9236;SDS011;24579;42.810;23.214;2022-08-24T06:39:50;10.63;;;8.45;;
9236;SDS011;24579;42.810;23.214;2022-08-24T06:42:17;11.27;;;9.30;;
9236;SDS011;24579;42.810;23.214;2022-08-24T06:44:44;9.73;;;8.00;;
9236;SDS011;24579;42.810;23.214;2022-08-24T06:47:13;11.85;;;9.00;;
9236;SDS011;24579;42.810;23.214;2022-08-24T06:49:40;10.23;;;8.60;;
9236;SDS011;24579;42.810;23.214;2022-08-24T06:52:07;8.98;;;8.07;;
9236;SDS011;24579;42.810;23.214;2022-08-24T06:54:35;9.35;;;7.75;;
9236;SDS011;24579;42.810;23.214;2022-08-24T06:57:03;8.27;;;6.93;;
9236;SDS011;24579;42.810;23.214;2022-08-24T06:59:30;8.18;;;7.05;;
9236;SDS011;24579;42.810;23.214;2022-08-24T07:01:57;9.05;;;7.30;;
9236;SDS011;24579;42.810;23.214;2022-08-24T07:04:26;9.98;;;7.35;;
9236;SDS011;24579;42.810;23.214;2022-08-24T07:06:54;11.48;;;7.70;;
9236;SDS011;24579;42.810;23.214;2022-08-24T07:09:21;10.43;;;7.65;;
9236;SDS011;24579;42.810;23.214;2022-08-24T07:11:49;7.72;;;6.57;;
9236;SDS011;24579;42.810;23.214;2022-08-24T07:14:16;7.78;;;6.72;;
9236;SDS011;24579;42.810;23.214;2022-08-24T07:16:43;8.85;;;7.20;;
9236;SDS011;24579;42.810;23.214;2022-08-24T07:19:11;10.80;;;7.35;;
9236;SDS011;24579;42.810;23.214;2022-08-24T07:21:39;11.35;;;7.80;;
9236;SDS011;24579;42.810;23.214;2022-08-24T07:24:06;8.88;;;7.38;;
9236;SDS011;24579;42.810;23.214;2022-08-24T07:26:35;9.45;;;7.40;;
9236;SDS011;24579;42.810;23.214;2022-08-24T07:29:09;9.05;;;7.20;;
9236;SDS011;24579;42.810;23.214;2022-08-24T07:31:39;10.55;;;7.53;;
9236;SDS011;24579;42.810;23.214;2022-08-24T07:34:07;9.23;;;7.05;;
9236;SDS011;24579;42.810;23.214;2022-08-24T07:36:36;8.15;;;7.30;;
9236;SDS011;24579;42.810;23.214;2022-08-24T07:39:06;7.93;;;7.10;;
9236;SDS011;24579;42.810;23.214;2022-08-24T07:41:36;10.43;;;7.57;;
9236;SDS011;24579;42.810;23.214;2022-08-24T07:44:04;13.98;;;8.07;;
9236;SDS011;24579;42.810;23.214;2022-08-24T07:46:31;9.05;;;7.63;;
9236;SDS011;24579;42.810;23.214;2022-08-24T07:48:58;10.10;;;7.18;;
9236;SDS011;24579;42.810;23.214;2022-08-24T07:51:25;8.85;;;7.35;;
9236;SDS011;24579;42.810;23.214;2022-08-24T07:53:52;9.55;;;7.82;;
9236;SDS011;24579;42.810;23.214;2022-08-24T07:56:21;8.35;;;7.30;;
9236;SDS011;24579;42.810;23.214;2022-08-24T07:58:48;9.88;;;7.00;;
9236;SDS011;24579;42.810;23.214;2022-08-24T08:01:15;7.75;;;7.03;;
9236;SDS011;24579;42.810;23.214;2022-08-24T08:03:43;7.53;;;6.65;;
9236;SDS011;24579;42.810;23.214;2022-08-24T08:06:10;9.27;;;7.00;;
9236;SDS011;24579;42.810;23.214;2022-08-24T08:08:38;8.48;;;7.03;;
9236;SDS011;24579;42.810;23.214;2022-08-24T08:11:06;10.15;;;6.85;;
9236;SDS011;24579;42.810;23.214;2022-08-24T08:13:35;8.70;;;6.60;;
9236;SDS011;24579;42.810;23.214;2022-08-24T08:16:03;7.38;;;6.57;;
9236;SDS011;24579;42.810;23.214;2022-08-24T08:18:31;8.38;;;6.80;;
9236;SDS011;24579;42.810;23.214;2022-08-24T08:20:58;8.85;;;6.82;;
9236;SDS011;24579;42.810;23.214;2022-08-24T08:23:26;8.20;;;6.63;;
9236;SDS011;24579;42.810;23.214;2022-08-24T08:26:12;7.13;;;6.50;;
9236;SDS011;24579;42.810;23.214;2022-08-24T08:28:41;7.88;;;6.95;;
9236;SDS011;24579;42.810;23.214;2022-08-24T08:31:09;7.00;;;6.20;;
9236;SDS011;24579;42.810;23.214;2022-08-24T08:33:36;7.43;;;6.38;;
9236;SDS011;24579;42.810;23.214;2022-08-24T08:36:03;6.70;;;5.90;;
9236;SDS011;24579;42.810;23.214;2022-08-24T08:38:34;6.50;;;5.70;;
9236;SDS011;24579;42.810;23.214;2022-08-24T08:41:05;7.55;;;6.28;;
9236;SDS011;24579;42.810;23.214;2022-08-24T08:43:51;6.70;;;5.75;;
9236;SDS011;24579;42.810;23.214;2022-08-24T08:46:26;6.10;;;5.60;;
9236;SDS011;24579;42.810;23.214;2022-08-24T08:49:17;6.05;;;5.55;;
9236;SDS011;24579;42.810;23.214;2022-08-24T08:52:21;7.35;;;5.43;;
9236;SDS011;24579;42.810;23.214;2022-08-24T08:54:58;7.85;;;5.65;;
9236;SDS011;24579;42.810;23.214;2022-08-24T09:00:34;6.43;;;5.82;;
9236;SDS011;24579;42.810;23.214;2022-08-24T09:06:10;6.13;;;5.22;;
9236;SDS011;24579;42.810;23.214;2022-08-24T09:09:04;7.63;;;5.20;;
9236;SDS011;24579;42.810;23.214;2022-08-24T09:11:42;7.65;;;5.15;;
9236;SDS011;24579;42.810;23.214;2022-08-24T09:17:30;6.85;;;4.93;;
9236;SDS011;24579;42.810;23.214;2022-08-24T09:20:11;6.63;;;4.07;;
9236;SDS011;24579;42.810;23.214;2022-08-24T09:22:48;6.93;;;3.88;;
9236;SDS011;24579;42.810;23.214;2022-08-24T09:25:31;6.85;;;4.30;;
9236;SDS011;24579;42.810;23.214;2022-08-24T09:28:11;5.90;;;4.03;;
9236;SDS011;24579;42.810;23.214;2022-08-24T09:34:07;6.43;;;4.35;;
9236;SDS011;24579;42.810;23.214;2022-08-24T09:36:45;7.30;;;4.00;;
9236;SDS011;24579;42.810;23.214;2022-08-24T09:39:24;9.45;;;6.57;;
9236;SDS011;24579;42.810;23.214;2022-08-24T09:45:12;9.45;;;4.35;;
9236;SDS011;24579;42.810;23.214;2022-08-24T09:48:14;8.25;;;4.15;;
9236;SDS011;24579;42.810;23.214;2022-08-24T09:51:07;8.10;;;4.25;;
9236;SDS011;24579;42.810;23.214;2022-08-24T10:10:46;6.75;;;3.92;;
9236;SDS011;24579;42.810;23.214;2022-08-24T10:13:19;8.93;;;4.65;;
9236;SDS011;24579;42.810;23.214;2022-08-24T10:16:12;8.57;;;4.35;;
9236;SDS011;24579;42.810;23.214;2022-08-24T10:18:56;7.50;;;4.45;;
9236;SDS011;24579;42.810;23.214;2022-08-24T10:21:39;6.90;;;4.53;;
9236;SDS011;24579;42.810;23.214;2022-08-24T10:27:22;8.88;;;4.07;;
9236;SDS011;24579;42.810;23.214;2022-08-24T10:33:22;9.02;;;4.25;;
9236;SDS011;24579;42.810;23.214;2022-08-24T10:35:54;8.85;;;4.72;;
9236;SDS011;24579;42.810;23.214;2022-08-24T10:38:37;8.32;;;4.28;;
9236;SDS011;24579;42.810;23.214;2022-08-24T10:41:36;6.13;;;4.43;;
9236;SDS011;24579;42.810;23.214;2022-08-24T10:44:45;8.13;;;4.43;;
9236;SDS011;24579;42.810;23.214;2022-08-24T10:47:20;10.15;;;4.88;;
9236;SDS011;24579;42.810;23.214;2022-08-24T10:52:48;6.65;;;4.60;;
9236;SDS011;24579;42.810;23.214;2022-08-24T10:55:31;10.40;;;4.82;;
9236;SDS011;24579;42.810;23.214;2022-08-24T10:58:05;10.20;;;4.78;;
9236;SDS011;24579;42.810;23.214;2022-08-24T11:00:46;6.20;;;4.63;;
9236;SDS011;24579;42.810;23.214;2022-08-24T11:03:14;10.10;;;4.47;;
9236;SDS011;24579;42.810;23.214;2022-08-24T11:05:46;8.68;;;4.70;;
9236;SDS011;24579;42.810;23.214;2022-08-24T11:08:18;5.65;;;4.68;;
9236;SDS011;24579;42.810;23.214;2022-08-24T11:11:02;7.97;;;4.75;;
9236;SDS011;24579;42.810;23.214;2022-08-24T11:13:32;8.07;;;4.60;;
9236;SDS011;24579;42.810;23.214;2022-08-24T11:16:02;10.32;;;4.40;;
9236;SDS011;24579;42.810;23.214;2022-08-24T11:18:48;6.55;;;4.45;;
9236;SDS011;24579;42.810;23.214;2022-08-24T11:21:26;11.05;;;4.57;;
9236;SDS011;24579;42.810;23.214;2022-08-24T11:24:06;8.50;;;4.70;;
9236;SDS011;24579;42.810;23.214;2022-08-24T11:26:46;9.85;;;5.63;;
9236;SDS011;24579;42.810;23.214;2022-08-24T11:29:18;11.88;;;5.18;;
9236;SDS011;24579;42.810;23.214;2022-08-24T11:31:49;9.93;;;4.60;;
9236;SDS011;24579;42.810;23.214;2022-08-24T11:34:18;11.32;;;5.38;;
9236;SDS011;24579;42.810;23.214;2022-08-24T11:36:57;10.50;;;5.00;;
9236;SDS011;24579;42.810;23.214;2022-08-24T11:39:25;9.50;;;5.18;;
9236;SDS011;24579;42.810;23.214;2022-08-24T11:41:57;11.10;;;5.07;;
9236;SDS011;24579;42.810;23.214;2022-08-24T11:44:39;7.65;;;4.80;;
9236;SDS011;24579;42.810;23.214;2022-08-24T11:47:25;8.65;;;4.95;;
9236;SDS011;24579;42.810;23.214;2022-08-24T11:50:06;9.85;;;5.45;;
9236;SDS011;24579;42.810;23.214;2022-08-24T11:52:47;7.57;;;5.72;;
9236;SDS011;24579;42.810;23.214;2022-08-24T11:55:33;9.82;;;5.40;;
9236;SDS011;24579;42.810;23.214;2022-08-24T11:58:06;9.90;;;5.55;;
9236;SDS011;24579;42.810;23.214;2022-08-24T12:00:42;9.85;;;5.43;;
9236;SDS011;24579;42.810;23.214;2022-08-24T12:03:21;6.40;;;5.20;;
9236;SDS011;24579;42.810;23.214;2022-08-24T12:06:00;8.95;;;5.18;;
9236;SDS011;24579;42.810;23.214;2022-08-24T12:08:33;10.43;;;5.35;;
9236;SDS011;24579;42.810;23.214;2022-08-24T12:11:08;8.50;;;5.40;;
9236;SDS011;24579;42.810;23.214;2022-08-24T12:13:46;12.27;;;5.53;;
9236;SDS011;24579;42.810;23.214;2022-08-24T12:19:10;10.25;;;6.45;;
9236;SDS011;24579;42.810;23.214;2022-08-24T12:21:44;9.40;;;6.18;;
9236;SDS011;24579;42.810;23.214;2022-08-24T12:24:15;10.18;;;5.45;;
9236;SDS011;24579;42.810;23.214;2022-08-24T12:26:46;9.70;;;5.40;;
9236;SDS011;24579;42.810;23.214;2022-08-24T12:29:19;13.32;;;6.10;;
9236;SDS011;24579;42.810;23.214;2022-08-24T12:31:53;11.23;;;5.97;;
9236;SDS011;24579;42.810;23.214;2022-08-24T12:34:28;19.13;;;6.20;;
9236;SDS011;24579;42.810;23.214;2022-08-24T12:37:04;15.88;;;6.28;;
9236;SDS011;24579;42.810;23.214;2022-08-24T12:39:35;8.82;;;6.28;;
9236;SDS011;24579;42.810;23.214;2022-08-24T12:42:10;14.27;;;6.25;;
9236;SDS011;24579;42.810;23.214;2022-08-24T12:44:44;13.57;;;6.30;;
9236;SDS011;24579;42.810;23.214;2022-08-24T12:47:19;10.10;;;6.88;;
9236;SDS011;24579;42.810;23.214;2022-08-24T12:49:52;8.90;;;6.35;;
9236;SDS011;24579;42.810;23.214;2022-08-24T12:52:32;11.52;;;6.53;;
9236;SDS011;24579;42.810;23.214;2022-08-24T12:55:33;12.00;;;6.43;;
9236;SDS011;24579;42.810;23.214;2022-08-24T13:01:26;11.90;;;6.10;;
9236;SDS011;24579;42.810;23.214;2022-08-24T13:04:05;12.05;;;6.32;;
9236;SDS011;24579;42.810;23.214;2022-08-24T13:06:39;13.43;;;6.30;;
9236;SDS011;24579;42.810;23.214;2022-08-24T13:09:11;12.60;;;6.68;;
9236;SDS011;24579;42.810;23.214;2022-08-24T13:11:42;12.18;;;6.47;;
9236;SDS011;24579;42.810;23.214;2022-08-24T13:14:17;13.10;;;6.15;;
9236;SDS011;24579;42.810;23.214;2022-08-24T13:16:47;10.40;;;6.28;;
9236;SDS011;24579;42.810;23.214;2022-08-24T13:19:30;11.43;;;6.05;;
9236;SDS011;24579;42.810;23.214;2022-08-24T13:22:35;14.23;;;6.07;;
9236;SDS011;24579;42.810;23.214;2022-08-24T13:25:21;9.38;;;6.22;;
9236;SDS011;24579;42.810;23.214;2022-08-24T13:28:02;10.85;;;6.10;;
9236;SDS011;24579;42.810;23.214;2022-08-24T13:33:42;13.80;;;6.90;;
9236;SDS011;24579;42.810;23.214;2022-08-24T13:42:39;17.35;;;7.25;;
9236;SDS011;24579;42.810;23.214;2022-08-24T13:45:33;18.75;;;8.35;;
9236;SDS011;24579;42.810;23.214;2022-08-24T13:48:10;12.45;;;7.38;;
9236;SDS011;24579;42.810;23.214;2022-08-24T13:50:47;16.33;;;8.05;;
9236;SDS011;24579;42.810;23.214;2022-08-24T13:53:42;18.85;;;8.70;;
9236;SDS011;24579;42.810;23.214;2022-08-24T13:56:20;18.40;;;7.80;;
9236;SDS011;24579;42.810;23.214;2022-08-24T13:59:02;15.27;;;8.00;;
9236;SDS011;24579;42.810;23.214;2022-08-24T14:01:33;19.25;;;7.93;;
9236;SDS011;24579;42.810;23.214;2022-08-24T14:04:07;16.92;;;8.00;;
9236;SDS011;24579;42.810;23.214;2022-08-24T14:06:53;16.45;;;7.30;;
9236;SDS011;24579;42.810;23.214;2022-08-24T14:09:32;16.40;;;6.50;;
9236;SDS011;24579;42.810;23.214;2022-08-24T14:12:09;18.95;;;7.72;;
9236;SDS011;24579;42.810;23.214;2022-08-24T14:27:36;11.82;;;7.43;;
9236;SDS011;24579;42.810;23.214;2022-08-24T14:33:27;15.70;;;6.90;;
9236;SDS011;24579;42.810;23.214;2022-08-24T14:38:53;21.27;;;7.18;;
9236;SDS011;24579;42.810;23.214;2022-08-24T14:41:39;20.73;;;6.82;;
9236;SDS011;24579;42.810;23.214;2022-08-24T14:44:19;16.02;;;6.82;;
9236;SDS011;24579;42.810;23.214;2022-08-24T14:46:57;16.35;;;6.88;;
9236;SDS011;24579;42.810;23.214;2022-08-24T14:49:33;26.15;;;7.18;;
9236;SDS011;24579;42.810;23.214;2022-08-24T14:52:09;22.52;;;7.25;;
9236;SDS011;24579;42.810;23.214;2022-08-24T14:54:46;22.60;;;7.00;;
9236;SDS011;24579;42.810;23.214;2022-08-24T14:57:33;18.38;;;8.10;;
9236;SDS011;24579;42.810;23.214;2022-08-24T15:00:12;22.52;;;7.93;;
9236;SDS011;24579;42.810;23.214;2022-08-24T15:05:37;18.10;;;7.25;;
9236;SDS011;24579;42.810;23.214;2022-08-24T15:08:09;15.57;;;7.55;;
9236;SDS011;24579;42.810;23.214;2022-08-24T15:10:40;20.23;;;7.60;;
9236;SDS011;24579;42.810;23.214;2022-08-24T15:13:12;16.92;;;7.00;;
9236;SDS011;24579;42.810;23.214;2022-08-24T15:15:54;23.23;;;7.57;;
9236;SDS011;24579;42.810;23.214;2022-08-24T15:18:32;18.90;;;7.47;;
9236;SDS011;24579;42.810;23.214;2022-08-24T15:21:07;22.77;;;7.97;;
9236;SDS011;24579;42.810;23.214;2022-08-24T15:23:44;22.83;;;7.75;;
9236;SDS011;24579;42.810;23.214;2022-08-24T15:26:17;20.17;;;7.57;;
9236;SDS011;24579;42.810;23.214;2022-08-24T15:28:55;21.85;;;7.72;;
9236;SDS011;24579;42.810;23.214;2022-08-24T15:31:24;29.42;;;8.00;;
9236;SDS011;24579;42.810;23.214;2022-08-24T15:33:53;31.50;;;7.75;;
9236;SDS011;24579;42.810;23.214;2022-08-24T15:36:22;31.10;;;8.27;;
9236;SDS011;24579;42.810;23.214;2022-08-24T15:38:49;26.17;;;6.88;;
9236;SDS011;24579;42.810;23.214;2022-08-24T15:41:17;30.85;;;8.05;;
9236;SDS011;24579;42.810;23.214;2022-08-24T15:43:47;26.63;;;8.55;;
9236;SDS011;24579;42.810;23.214;2022-08-24T15:46:19;31.85;;;8.52;;
9236;SDS011;24579;42.810;23.214;2022-08-24T15:48:50;30.08;;;8.43;;
9236;SDS011;24579;42.810;23.214;2022-08-24T15:51:35;32.38;;;8.57;;
9236;SDS011;24579;42.810;23.214;2022-08-24T15:54:13;28.58;;;8.35;;
9236;SDS011;24579;42.810;23.214;2022-08-24T15:56:55;35.92;;;8.38;;
9236;SDS011;24579;42.810;23.214;2022-08-24T15:59:25;28.05;;;8.45;;
9236;SDS011;24579;42.810;23.214;2022-08-24T16:01:54;33.53;;;8.35;;
9236;SDS011;24579;42.810;23.214;2022-08-24T16:04:45;30.02;;;8.27;;
9236;SDS011;24579;42.810;23.214;2022-08-24T16:07:15;31.33;;;8.63;;
9236;SDS011;24579;42.810;23.214;2022-08-24T16:09:48;36.30;;;8.63;;
9236;SDS011;24579;42.810;23.214;2022-08-24T16:12:27;38.97;;;8.93;;
9236;SDS011;24579;42.810;23.214;2022-08-24T16:14:55;30.38;;;8.82;;
9236;SDS011;24579;42.810;23.214;2022-08-24T16:17:35;34.97;;;8.73;;
9236;SDS011;24579;42.810;23.214;2022-08-24T16:20:09;30.63;;;8.68;;